Time;durP1;ratioP1;P1;durP2;ratioP2;P2;SDS_P1;SDS_P2;PMS_P1;PMS_P2;Temp;Humidity;BMP_temperature;BMP_pressure;BME280_temperature;BME280_humidity;BME280_pressure;Samples;Min_cycle;Max_cycle;Signal;HPM_P1;HPM_P2
2023/05/01 00:00:23;;;;;;;2.33;1.87;;;;;;;10.40;94.20;96180.94;5037472;28;20208;-68
2023/05/01 00:02:50;;;;;;;3.80;1.90;;;;;;;10.33;94.70;96180.03;5037246;28;20205;-69
2023/05/01 00:05:18;;;;;;;2.87;1.60;;;;;;;10.34;96.02;96180.84;5037755;28;20678;-69
2023/05/01 00:07:45;;;;;;;2.13;1.63;;;;;;;10.35;95.84;96170.13;5036509;28;20555;-69
2023/05/01 00:10:11;;;;;;;3.20;1.87;;;;;;;10.21;96.09;96169.25;5037655;28;20205;-70
2023/05/01 00:12:38;;;;;;;1.87;1.70;;;;;;;10.31;95.83;96168.03;5037856;28;20213;-70
2023/05/01 00:15:05;;;;;;;2.97;1.97;;;;;;;10.38;95.80;96166.31;5037962;28;20680;-69
2023/05/01 00:17:32;;;;;;;1.93;1.60;;;;;;;10.34;95.61;96167.66;5036046;28;20229;-70
2023/05/01 00:19:58;;;;;;;3.33;2.07;;;;;;;10.34;95.26;96162.41;5038328;28;21135;-69
2023/05/01 00:22:26;;;;;;;3.93;1.93;;;;;;;10.51;95.10;96159.47;5037953;28;20212;-70
2023/05/01 00:24:53;;;;;;;1.80;1.63;;;;;;;10.45;95.10;96143.53;5037417;28;20275;-69
2023/05/01 00:27:19;;;;;;;3.83;2.47;;;;;;;10.48;94.58;96145.81;5036177;28;20221;-72
2023/05/01 00:29:46;;;;;;;3.83;1.80;;;;;;;10.45;94.66;96146.16;5037914;28;20213;-71
2023/05/01 00:32:13;;;;;;;4.57;2.20;;;;;;;10.54;93.85;96142.47;5037090;28;20213;-69
2023/05/01 00:34:40;;;;;;;2.00;1.63;;;;;;;10.52;94.17;96140.00;5036916;28;20252;-70
2023/05/01 00:37:07;;;;;;;5.47;2.30;;;;;;;10.45;94.78;96139.09;5037187;28;20651;-69
2023/05/01 00:39:34;;;;;;;4.83;2.07;;;;;;;10.48;95.55;96138.72;5036476;28;20213;-71
2023/05/01 00:42:01;;;;;;;2.13;1.47;;;;;;;10.16;95.86;96130.28;5036192;28;20993;-69
2023/05/01 00:44:27;;;;;;;4.23;2.17;;;;;;;10.21;95.92;96124.47;5037515;28;20250;-71
2023/05/01 00:46:55;;;;;;;1.87;1.20;;;;;;;10.34;95.59;96125.53;5037100;28;20224;-70
2023/05/01 00:49:21;;;;;;;2.47;1.70;;;;;;;10.22;96.66;96119.06;5037014;28;20200;-69
2023/05/01 00:51:52;;;;;;;2.93;1.80;;;;;;;10.21;96.78;96119.22;5037057;28;20204;-71
2023/05/01 00:54:18;;;;;;;1.90;1.60;;;;;;;9.96;97.99;96115.94;5036854;28;20220;-70
2023/05/01 00:56:47;;;;;;;1.77;1.43;;;;;;;10.11;99.33;96114.19;5036276;28;20201;-69
2023/05/01 00:59:14;;;;;;;4.43;2.23;;;;;;;10.09;99.35;96110.91;5036074;28;20205;-70
2023/05/01 01:01:41;;;;;;;4.57;2.50;;;;;;;10.24;98.86;96113.59;5037119;28;20201;-69
2023/05/01 01:04:07;;;;;;;5.63;2.87;;;;;;;10.14;98.85;96116.47;5035802;28;20708;-69
2023/05/01 01:06:42;;;;;;;2.43;1.40;;;;;;;10.27;98.86;96108.78;5036329;28;20236;-69
2023/05/01 01:09:17;;;;;;;2.50;1.77;;;;;;;10.28;98.53;96110.44;5035719;28;20669;-70
2023/05/01 01:11:57;;;;;;;2.83;1.90;;;;;;;10.25;98.15;96110.78;5035886;28;20569;-70
2023/05/01 01:14:32;;;;;;;3.87;2.20;;;;;;;10.32;97.78;96105.63;5036087;28;20217;-70
2023/05/01 01:17:04;;;;;;;2.50;1.50;;;;;;;10.35;98.47;96101.63;5036864;28;20208;-70
2023/05/01 01:20:01;;;;;;;3.10;2.17;;;;;;;10.47;97.63;96099.38;5035609;28;20204;-71
2023/05/01 01:22:29;;;;;;;1.97;1.73;;;;;;;10.39;97.26;96099.47;5036374;28;20692;-69
2023/05/01 01:25:16;;;;;;;3.87;2.83;;;;;;;10.46;96.91;96092.47;5036296;28;20225;-70
2023/05/01 01:28:04;;;;;;;4.33;2.00;;;;;;;10.55;95.96;96092.25;5035808;28;20295;-70
2023/05/01 01:31:02;;;;;;;5.80;2.50;;;;;;;10.54;95.98;96092.41;5036627;28;20201;-68
2023/05/01 01:33:49;;;;;;;4.87;2.00;;;;;;;10.53;96.01;96103.94;5037716;28;20201;-70
2023/05/01 01:36:18;;;;;;;2.87;2.10;;;;;;;10.40;96.44;96107.19;5035237;28;20224;-69
2023/05/01 01:38:51;;;;;;;4.20;2.33;;;;;;;10.49;96.15;96102.69;5034061;28;20209;-70
2023/05/01 01:41:23;;;;;;;2.17;1.57;;;;;;;10.43;96.18;96104.19;5036243;28;20208;-70
2023/05/01 01:44:09;;;;;;;4.20;2.23;;;;;;;10.42;96.00;96096.47;5035385;28;20211;-71
2023/05/01 01:46:39;;;;;;;4.40;2.57;;;;;;;10.28;96.64;96097.25;5036072;28;20229;-69
2023/05/01 01:49:13;;;;;;;3.07;1.73;;;;;;;10.31;96.97;96102.19;5035405;28;20217;-69
2023/05/01 01:51:41;;;;;;;2.93;2.00;;;;;;;10.37;96.07;96098.81;5035716;28;20205;-70
2023/05/01 01:54:11;;;;;;;2.20;1.70;;;;;;;10.20;95.74;96091.25;5034957;28;20736;-69
2023/05/01 01:56:40;;;;;;;5.97;1.97;;;;;;;10.14;96.03;96092.78;5035585;28;20201;-69
2023/05/01 01:59:09;;;;;;;3.47;2.37;;;;;;;9.96;97.00;96084.38;5035342;28;20205;-70
2023/05/01 02:01:39;;;;;;;2.93;1.70;;;;;;;9.99;97.84;96081.41;5035225;28;20209;-71
2023/05/01 02:04:07;;;;;;;5.70;1.90;;;;;;;9.94;98.06;96077.59;5036010;28;20208;-71
2023/05/01 02:06:36;;;;;;;3.53;1.70;;;;;;;9.84;98.51;96079.69;5034620;28;20225;-69
2023/05/01 02:09:05;;;;;;;2.73;1.43;;;;;;;9.80;99.44;96076.59;5033947;28;20201;-69
2023/05/01 02:11:32;;;;;;;2.53;2.17;;;;;;;9.80;98.87;96081.84;5035069;28;20197;-70
2023/05/01 02:14:01;;;;;;;4.60;2.60;;;;;;;9.92;99.21;96075.16;5035696;28;20670;-69
2023/05/01 02:16:28;;;;;;;2.47;1.80;;;;;;;10.01;97.92;96076.75;5035155;28;20203;-71
2023/05/01 02:18:55;;;;;;;2.83;1.83;;;;;;;10.01;97.86;96070.69;5034574;28;20213;-69
2023/05/01 02:21:25;;;;;;;3.23;1.83;;;;;;;10.09;96.97;96074.06;5035162;28;20204;-72
2023/05/01 02:23:51;;;;;;;3.37;2.03;;;;;;;10.12;97.11;96072.88;5039983;28;20702;-71
2023/05/01 02:26:21;;;;;;;2.93;2.20;;;;;;;10.05;96.76;96071.97;5039065;28;20319;-69
2023/05/01 02:28:47;;;;;;;2.10;1.50;;;;;;;10.16;97.16;96069.72;5039464;28;20296;-69
2023/05/01 02:31:14;;;;;;;2.47;1.63;;;;;;;10.12;96.98;96067.63;5039191;28;20215;-69
2023/05/01 02:33:40;;;;;;;2.67;2.03;;;;;;;10.07;97.76;96064.69;5036809;28;21030;-73
2023/05/01 02:36:07;;;;;;;3.03;2.07;;;;;;;10.10;97.39;96065.16;5039875;28;20251;-71
2023/05/01 02:38:35;;;;;;;1.63;1.23;;;;;;;10.02;97.94;96070.50;5038728;28;20571;-70
2023/05/01 02:41:03;;;;;;;1.57;1.47;;;;;;;9.96;97.27;96071.22;5038513;28;20220;-71
2023/05/01 02:43:33;;;;;;;3.03;2.00;;;;;;;10.00;97.73;96069.06;5039808;28;20574;-71
2023/05/01 02:46:01;;;;;;;3.70;1.80;;;;;;;10.04;98.30;96065.91;5039570;28;20221;-71
2023/05/01 02:48:29;;;;;;;2.47;2.00;;;;;;;10.03;98.93;96063.41;5038792;28;20232;-71
2023/05/01 02:50:56;;;;;;;3.10;2.03;;;;;;;10.14;98.01;96057.75;5038365;28;20205;-71
2023/05/01 02:53:23;;;;;;;2.93;1.60;;;;;;;10.05;97.73;96056.97;5039071;28;20204;-71
2023/05/01 02:55:52;;;;;;;3.23;1.70;;;;;;;9.97;98.74;96054.44;5039128;28;20236;-71
2023/05/01 02:58:19;;;;;;;2.30;1.53;;;;;;;9.91;98.53;96049.84;5038597;28;20205;-71
2023/05/01 03:00:48;;;;;;;3.20;1.53;;;;;;;10.00;98.13;96048.78;5039181;28;20201;-69
2023/05/01 03:03:15;;;;;;;2.53;1.90;;;;;;;10.01;98.27;96047.81;5038839;28;20205;-71
2023/05/01 03:05:42;;;;;;;2.53;1.10;;;;;;;10.00;97.49;96040.91;5038356;28;20233;-72
2023/05/01 03:08:08;;;;;;;5.77;2.93;;;;;;;9.89;97.44;96035.22;5037975;28;20811;-71
2023/05/01 03:10:35;;;;;;;2.50;2.23;;;;;;;9.79;99.42;96029.41;5038543;28;20220;-70
2023/05/01 03:13:03;;;;;;;4.20;1.67;;;;;;;9.97;97.76;96038.63;5038048;28;20209;-69
2023/05/01 03:15:29;;;;;;;3.87;2.03;;;;;;;9.94;98.23;96038.97;5039024;28;20225;-71
2023/05/01 03:17:56;;;;;;;2.23;2.00;;;;;;;9.97;98.98;96037.81;5037775;28;20201;-70
2023/05/01 03:20:23;;;;;;;6.73;1.83;;;;;;;9.88;99.56;96029.13;5039224;28;20197;-71
2023/05/01 03:22:50;;;;;;;2.37;1.47;;;;;;;9.90;99.43;96026.31;5037591;28;20209;-69
2023/05/01 03:25:16;;;;;;;3.23;1.73;;;;;;;9.98;97.81;96031.53;5038496;28;20231;-68
2023/05/01 03:27:42;;;;;;;3.83;1.83;;;;;;;9.87;100.00;96024.88;5037896;28;20344;-71
2023/05/01 03:30:11;;;;;;;1.67;1.40;;;;;;;9.99;99.64;96020.03;5038475;28;20205;-71
2023/05/01 03:32:38;;;;;;;2.63;1.60;;;;;;;10.02;98.47;96020.50;5037918;28;20213;-69
2023/05/01 03:35:06;;;;;;;3.90;1.97;;;;;;;10.14;98.92;96026.94;5038675;28;20224;-71
2023/05/01 03:37:32;;;;;;;3.37;1.83;;;;;;;10.15;98.08;96023.31;5037708;28;20208;-70
2023/05/01 03:39:59;;;;;;;3.27;2.20;;;;;;;10.15;98.63;96025.16;5037977;28;20219;-70
2023/05/01 03:42:25;;;;;;;3.47;1.70;;;;;;;10.25;98.48;96031.00;5038499;28;20208;-71
2023/05/01 03:44:52;;;;;;;4.30;2.57;;;;;;;10.06;99.26;96021.78;5037401;28;20238;-71
2023/05/01 03:47:20;;;;;;;2.10;1.53;;;;;;;10.06;100.00;96015.69;5037303;28;20224;-69
2023/05/01 03:49:46;;;;;;;3.87;1.73;;;;;;;10.03;98.52;96019.50;5037791;28;20299;-68
2023/05/01 03:52:13;;;;;;;3.50;2.00;;;;;;;10.10;99.85;96016.97;5037506;28;20584;-70
2023/05/01 03:54:39;;;;;;;5.23;2.13;;;;;;;10.04;99.20;96010.63;5037956;28;20233;-69
2023/05/01 03:57:06;;;;;;;4.40;2.73;;;;;;;10.01;100.00;96008.31;5038828;28;20224;-69
2023/05/01 03:59:32;;;;;;;5.13;2.03;;;;;;;9.98;99.83;96010.50;5036067;28;20201;-71
2023/05/01 04:01:59;;;;;;;2.70;1.87;;;;;;;10.00;99.66;96006.69;5037828;28;20680;-71
2023/05/01 04:04:28;;;;;;;4.80;1.80;;;;;;;10.06;100.00;96010.44;5037869;28;20224;-70
2023/05/01 04:06:54;;;;;;;3.47;1.57;;;;;;;10.04;100.00;96008.00;5038372;28;20225;-68
2023/05/01 04:09:21;;;;;;;3.17;2.27;;;;;;;10.02;99.58;96009.97;5037220;28;20201;-69
2023/05/01 04:11:47;;;;;;;3.17;1.93;;;;;;;10.15;98.33;96010.16;5037871;28;20212;-71
2023/05/01 04:14:14;;;;;;;6.00;2.13;;;;;;;10.19;98.25;96016.69;5036822;28;20220;-68
2023/05/01 04:16:40;;;;;;;4.93;1.37;;;;;;;10.26;97.70;96016.78;5037911;28;20220;-69
2023/05/01 04:19:08;;;;;;;2.87;2.20;;;;;;;10.14;97.56;96019.06;5035964;28;20510;-69
2023/05/01 04:21:36;;;;;;;2.77;1.67;;;;;;;10.36;97.35;96012.91;5037895;28;20599;-70
2023/05/01 04:24:02;;;;;;;2.53;1.57;;;;;;;10.31;98.44;96011.81;5036673;28;20212;-71
2023/05/01 04:26:29;;;;;;;5.13;2.00;;;;;;;10.29;98.47;96017.25;5037909;28;20205;-69
2023/05/01 04:28:55;;;;;;;3.93;2.10;;;;;;;10.39;98.12;96013.34;5036748;28;20201;-69
2023/05/01 04:31:22;;;;;;;2.93;1.63;;;;;;;10.47;99.25;96020.34;5037428;28;20585;-69
2023/05/01 04:33:48;;;;;;;2.53;1.50;;;;;;;10.32;99.28;96011.63;5037352;28;20208;-68
2023/05/01 04:36:14;;;;;;;5.13;2.17;;;;;;;10.32;99.10;96016.09;5037126;28;20232;-69
2023/05/01 04:38:43;;;;;;;3.83;1.43;;;;;;;10.46;100.00;96014.28;5036126;28;20239;-69
2023/05/01 04:41:09;;;;;;;2.13;1.67;;;;;;;10.41;100.00;96018.44;5036618;28;20296;-70
2023/05/01 04:43:36;;;;;;;1.47;1.20;;;;;;;10.44;100.00;96018.91;5037502;28;20298;-72
2023/05/01 04:46:03;;;;;;;3.47;2.07;;;;;;;10.53;100.00;96017.00;5036493;28;20233;-69
2023/05/01 04:48:30;;;;;;;2.53;1.80;;;;;;;10.29;100.00;96022.53;5036673;28;20228;-70
2023/05/01 04:50:57;;;;;;;3.47;1.93;;;;;;;10.47;100.00;96018.53;5037140;28;20216;-73
2023/05/01 04:53:23;;;;;;;4.03;1.80;;;;;;;10.47;100.00;96028.25;5036990;28;20250;-70
2023/05/01 04:55:51;;;;;;;2.47;1.87;;;;;;;10.52;100.00;96026.72;5036492;28;20225;-71
2023/05/01 04:58:18;;;;;;;3.67;1.77;;;;;;;10.44;100.00;96036.53;5035701;28;20205;-73
2023/05/01 05:00:44;;;;;;;2.00;1.57;;;;;;;10.60;100.00;96031.06;5036754;28;20212;-72
2023/05/01 05:03:11;;;;;;;3.40;1.43;;;;;;;10.51;100.00;96034.81;5036977;28;20201;-70
2023/05/01 05:05:37;;;;;;;2.60;1.80;;;;;;;10.68;100.00;96038.88;5036649;28;20228;-72
2023/05/01 05:08:05;;;;;;;3.93;1.80;;;;;;;10.67;100.00;96032.00;5035708;28;20728;-70
2023/05/01 05:10:31;;;;;;;3.10;1.87;;;;;;;10.66;100.00;96040.91;5036574;28;20670;-71
2023/05/01 05:12:59;;;;;;;10.23;2.10;;;;;;;10.80;100.00;96040.06;5037261;28;20205;-70
2023/05/01 05:15:25;;;;;;;4.37;2.10;;;;;;;10.66;100.00;96038.25;5036992;28;20228;-71
2023/05/01 05:17:52;;;;;;;4.53;3.17;;;;;;;10.53;100.00;96038.88;5035373;28;20206;-70
2023/05/01 05:20:18;;;;;;;4.10;1.77;;;;;;;10.63;100.00;96041.28;5036676;28;20658;-69
2023/05/01 05:22:45;;;;;;;3.77;2.10;;;;;;;10.67;100.00;96042.53;5036193;28;20209;-70
2023/05/01 05:25:11;;;;;;;3.27;2.23;;;;;;;10.74;100.00;96043.44;5036236;28;20231;-69
2023/05/01 05:27:38;;;;;;;2.33;1.90;;;;;;;10.73;100.00;96044.44;5035744;28;20221;-70
2023/05/01 05:30:07;;;;;;;2.30;1.97;;;;;;;10.77;100.00;96040.41;5036664;28;20224;-70
2023/05/01 05:32:34;;;;;;;2.50;1.80;;;;;;;10.76;100.00;96046.72;5035986;28;20212;-69
2023/05/01 05:35:00;;;;;;;2.07;1.40;;;;;;;10.72;100.00;96046.25;5036458;28;20612;-70
2023/05/01 05:37:27;;;;;;;4.20;2.10;;;;;;;10.68;100.00;96050.25;5035510;28;20200;-69
2023/05/01 05:39:53;;;;;;;4.27;1.77;;;;;;;10.73;100.00;96044.44;5035614;28;20216;-72
2023/05/01 05:42:20;;;;;;;4.67;1.87;;;;;;;10.67;100.00;96037.28;5035910;28;20209;-69
2023/05/01 05:44:47;;;;;;;3.67;1.80;;;;;;;10.59;100.00;96039.97;5035739;28;20598;-70
2023/05/01 05:47:14;;;;;;;2.93;1.33;;;;;;;10.72;100.00;96040.19;5035440;28;20240;-72
2023/05/01 05:49:41;;;;;;;3.67;2.40;;;;;;;10.66;100.00;96040.91;5035318;28;20687;-72
2023/05/01 05:52:07;;;;;;;3.63;1.50;;;;;;;10.66;100.00;96048.81;5035647;28;20212;-72
2023/05/01 05:54:34;;;;;;;2.93;2.10;;;;;;;10.72;100.00;96048.09;5035412;28;20225;-70
2023/05/01 05:57:01;;;;;;;3.00;2.13;;;;;;;10.75;100.00;96039.81;5034841;28;20292;-70
2023/05/01 05:59:28;;;;;;;5.87;2.30;;;;;;;10.84;100.00;96050.06;5035760;28;20201;-69
2023/05/01 06:01:54;;;;;;;2.50;1.73;;;;;;;10.80;100.00;96042.72;5035407;28;21044;-72
2023/05/01 06:04:22;;;;;;;2.30;1.50;;;;;;;10.93;100.00;96044.53;5035343;28;20229;-72
2023/05/01 06:06:48;;;;;;;3.40;1.80;;;;;;;10.85;100.00;96048.25;5035919;28;20205;-71
2023/05/01 06:09:17;;;;;;;1.40;1.30;;;;;;;10.88;100.00;96045.25;5034814;28;20228;-70
2023/05/01 06:11:44;;;;;;;3.97;2.53;;;;;;;10.84;100.00;96043.97;5035560;28;20583;-70
2023/05/01 06:14:11;;;;;;;4.10;2.60;;;;;;;10.84;100.00;96041.34;5035993;28;20209;-69
2023/05/01 06:16:37;;;;;;;3.87;2.20;;;;;;;10.68;100.00;96038.88;5035170;28;20205;-71
2023/05/01 06:19:04;;;;;;;2.87;1.77;;;;;;;10.84;100.00;96043.97;5033644;28;20205;-69
2023/05/01 06:21:33;;;;;;;2.37;1.80;;;;;;;10.81;100.00;96036.44;5036432;28;20201;-70
2023/05/01 06:24:00;;;;;;;2.77;2.00;;;;;;;10.71;100.00;96034.06;5036041;28;20209;-70
2023/05/01 06:26:26;;;;;;;2.33;2.00;;;;;;;10.50;100.00;96031.38;5035024;28;20212;-71
2023/05/01 06:28:53;;;;;;;3.00;2.03;;;;;;;10.40;100.00;96036.06;5033831;28;20278;-72
2023/05/01 06:31:20;;;;;;;3.90;2.33;;;;;;;10.42;100.00;96031.47;5035912;28;20677;-70
2023/05/01 06:33:46;;;;;;;2.43;1.90;;;;;;;10.54;100.00;96035.25;5034599;28;20201;-69
2023/05/01 06:36:13;;;;;;;1.90;1.50;;;;;;;10.59;100.00;96039.97;5035192;28;20224;-69
2023/05/01 06:38:47;;;;;;;2.17;1.80;;;;;;;10.83;100.00;96031.78;5034510;28;20595;-69
2023/05/01 06:41:13;;;;;;;2.87;1.93;;;;;;;10.84;100.00;96038.72;5036154;28;20323;-71
2023/05/01 06:43:40;;;;;;;2.57;1.87;;;;;;;10.78;100.00;96039.44;5035015;28;20212;-71
2023/05/01 06:46:06;;;;;;;3.93;2.33;;;;;;;10.94;100.00;96042.69;5035332;28;20562;-70
2023/05/01 06:48:33;;;;;;;4.30;1.70;;;;;;;10.93;100.00;96042.88;5035629;28;20220;-72
2023/05/01 06:50:59;;;;;;;4.43;2.67;;;;;;;10.97;100.00;96045.78;5035648;28;20216;-69
2023/05/01 06:53:26;;;;;;;5.83;1.97;;;;;;;11.07;100.00;96048.97;5035811;28;20213;-70
2023/05/01 06:55:53;;;;;;;2.93;1.83;;;;;;;11.12;100.00;96040.47;5035653;28;20240;-70
2023/05/01 06:58:20;;;;;;;3.53;1.60;;;;;;;11.07;100.00;96056.03;5034507;28;20204;-70
2023/05/01 07:00:47;;;;;;;3.87;2.60;;;;;;;11.07;100.00;96042.84;5035074;28;20216;-70
2023/05/01 07:03:13;;;;;;;4.53;2.33;;;;;;;10.93;100.00;96043.69;5035402;28;20951;-70
2023/05/01 07:05:40;;;;;;;2.07;1.80;;;;;;;10.92;100.00;96046.50;5035367;28;20259;-70
2023/05/01 07:08:08;;;;;;;2.27;1.67;;;;;;;11.07;100.00;96050.75;5035622;28;20252;-70
2023/05/01 07:10:34;;;;;;;3.30;2.07;;;;;;;11.25;100.00;96054.66;5038117;28;20212;-70
2023/05/01 07:13:02;;;;;;;1.67;1.13;;;;;;;11.29;100.00;96049.81;5038817;28;20324;-71
2023/05/01 07:15:29;;;;;;;4.00;2.23;;;;;;;11.34;100.00;96053.53;5038646;28;20225;-70
2023/05/01 07:17:57;;;;;;;3.37;2.37;;;;;;;11.50;100.00;96050.69;5038461;28;20220;-70
2023/05/01 07:20:23;;;;;;;5.37;2.43;;;;;;;11.35;100.00;96055.16;5038360;28;20223;-70
2023/05/01 07:22:49;;;;;;;3.40;2.27;;;;;;;11.41;100.00;96048.34;5038783;28;20212;-70
2023/05/01 07:25:16;;;;;;;3.63;2.10;;;;;;;11.67;100.00;96049.44;5038296;28;20229;-70
2023/05/01 07:27:43;;;;;;;2.97;1.70;;;;;;;11.77;100.00;96049.94;5038159;28;20587;-71
2023/05/01 07:30:11;;;;;;;4.23;2.43;;;;;;;11.95;100.00;96050.31;5037608;28;20584;-71
2023/05/01 07:32:38;;;;;;;3.47;2.13;;;;;;;11.97;100.00;96050.97;5038461;28;20213;-70
2023/05/01 07:35:05;;;;;;;3.00;1.90;;;;;;;11.82;99.75;96052.84;5038011;28;20604;-71
2023/05/01 07:37:32;;;;;;;2.97;1.93;;;;;;;11.99;99.94;96049.78;5037926;28;20284;-70
2023/05/01 07:39:59;;;;;;;3.77;2.27;;;;;;;11.75;100.00;96055.44;5037592;28;20213;-71
2023/05/01 07:42:26;;;;;;;2.93;2.20;;;;;;;11.93;98.58;96061.06;5038432;28;20212;-71
2023/05/01 07:44:52;;;;;;;2.60;1.73;;;;;;;12.04;97.18;96062.38;5038246;28;20252;-71
2023/05/01 07:47:20;;;;;;;2.97;2.27;;;;;;;12.21;97.26;96064.56;5036841;28;20213;-70
2023/05/01 07:49:47;;;;;;;5.80;2.00;;;;;;;12.28;96.34;96055.69;5038306;28;20282;-71
2023/05/01 07:52:14;;;;;;;2.50;1.73;;;;;;;12.22;95.14;96051.19;5037874;28;20209;-70
2023/05/01 07:54:41;;;;;;;3.07;2.10;;;;;;;11.95;93.76;96058.25;5037788;28;20224;-71
2023/05/01 07:57:08;;;;;;;3.80;2.27;;;;;;;12.16;94.60;96051.94;5036836;28;20207;-71
2023/05/01 07:59:34;;;;;;;2.53;1.92;;;;;;;11.96;97.16;96049.31;5037834;28;20216;-71
2023/05/01 08:02:01;;;;;;;1.97;1.77;;;;;;;12.04;97.52;96059.75;5037876;28;20205;-70
2023/05/01 08:04:29;;;;;;;3.17;2.20;;;;;;;12.25;96.40;96058.72;5039433;28;20229;-71
2023/05/01 08:06:56;;;;;;;4.73;2.77;;;;;;;12.18;95.27;96060.50;5038096;28;20205;-71
2023/05/01 08:09:22;;;;;;;5.73;2.73;;;;;;;12.31;94.24;96060.59;5036028;28;20229;-70
2023/05/01 08:11:49;;;;;;;2.97;2.03;;;;;;;12.24;94.43;96065.03;5037088;28;21198;-71
2023/05/01 08:14:16;;;;;;;2.93;2.10;;;;;;;12.36;92.85;96067.97;5037858;28;20304;-71
2023/05/01 08:16:42;;;;;;;3.30;2.23;;;;;;;12.44;94.25;96065.97;5037650;28;20205;-71
2023/05/01 08:19:09;;;;;;;2.80;1.90;;;;;;;12.39;94.82;96072.84;5035791;28;20209;-70
2023/05/01 08:21:37;;;;;;;4.20;2.07;;;;;;;12.38;90.72;96068.56;5037614;28;20205;-71
2023/05/01 08:24:03;;;;;;;2.80;2.10;;;;;;;12.18;90.70;96073.69;5036840;28;20205;-70
2023/05/01 08:26:30;;;;;;;4.83;2.57;;;;;;;12.12;92.06;96076.28;5037446;28;20208;-70
2023/05/01 08:28:57;;;;;;;3.20;2.00;;;;;;;12.09;90.86;96076.66;5037137;28;20225;-70
2023/05/01 08:31:24;;;;;;;2.73;1.70;;;;;;;12.06;91.11;96068.31;5037334;28;20209;-71
2023/05/01 08:33:50;;;;;;;2.53;1.60;;;;;;;12.20;94.54;96070.88;5036272;28;20205;-70
2023/05/01 08:36:17;;;;;;;3.13;2.17;;;;;;;12.32;93.04;96067.53;5037424;28;20224;-70
2023/05/01 08:38:45;;;;;;;3.70;2.03;;;;;;;12.42;93.96;96072.47;5036397;28;20205;-71
2023/05/01 08:41:16;;;;;;;4.70;2.77;;;;;;;12.53;93.22;96072.75;5037387;28;20254;-71
2023/05/01 08:43:43;;;;;;;6.37;2.67;;;;;;;12.11;96.53;96077.28;5036835;28;20221;-71
2023/05/01 08:46:11;;;;;;;3.63;2.10;;;;;;;12.44;96.11;96071.25;5037493;28;20224;-71
2023/05/01 08:48:41;;;;;;;5.65;2.25;;;;;;;12.64;93.21;96074.88;5036261;28;20232;-71
2023/05/01 08:51:11;;;;;;;5.03;2.15;;;;;;;12.59;92.25;96071.16;5037042;28;20206;-71
2023/05/01 08:53:39;;;;;;;2.73;2.00;;;;;;;12.34;91.19;96078.69;5037061;28;20205;-71
2023/05/01 08:56:10;;;;;;;4.27;1.93;;;;;;;12.63;93.33;96081.16;5036522;28;20229;-71
2023/05/01 08:58:37;;;;;;;5.63;3.43;;;;;;;12.29;91.86;96083.72;5036225;28;20207;-71
2023/05/01 09:01:04;;;;;;;4.10;2.23;;;;;;;12.43;92.44;96088.13;5036035;28;20211;-71
2023/05/01 09:03:32;;;;;;;3.17;2.37;;;;;;;12.41;91.35;96084.88;5036978;28;20197;-70
2023/05/01 09:06:00;;;;;;;3.87;2.50;;;;;;;12.47;92.90;96080.63;5036297;28;20590;-71
2023/05/01 09:08:26;;;;;;;3.70;2.07;;;;;;;12.33;94.87;96084.19;5036272;28;20256;-71
2023/05/01 09:10:55;;;;;;;4.50;2.07;;;;;;;12.18;98.35;96088.72;5036577;28;20240;-71
2023/05/01 09:13:25;;;;;;;6.60;2.10;;;;;;;12.46;97.40;96085.13;5036132;28;20205;-70
2023/05/01 09:15:51;;;;;;;7.07;2.77;;;;;;;12.05;98.87;96087.78;5035946;28;20228;-70
2023/05/01 09:18:18;;;;;;;3.13;2.23;;;;;;;12.19;95.71;96093.84;5036618;28;20201;-70
2023/05/01 09:20:44;;;;;;;3.97;2.73;;;;;;;12.37;96.94;96086.25;5036248;28;20205;-71
2023/05/01 09:23:11;;;;;;;3.17;1.93;;;;;;;12.41;94.99;96086.66;5036042;28;20212;-70
2023/05/01 09:25:38;;;;;;;3.33;2.03;;;;;;;12.65;92.68;96079.13;5035796;28;21048;-71
2023/05/01 09:28:05;;;;;;;5.77;2.63;;;;;;;12.74;93.93;96088.56;5035852;28;20201;-70
2023/05/01 09:30:35;;;;;;;2.13;1.60;;;;;;;12.72;95.36;96080.00;5035437;28;20202;-73
2023/05/01 09:33:09;;;;;;;4.23;1.87;;;;;;;12.94;93.43;96085.03;5034604;28;20698;-73
2023/05/01 09:35:52;;;;;;;3.40;2.00;;;;;;;12.81;92.75;96084.13;5035373;28;20567;-70
2023/05/01 09:38:20;;;;;;;3.03;1.93;;;;;;;12.86;93.86;96076.47;5034333;28;20197;-70
2023/05/01 09:40:47;;;;;;;3.28;2.15;;;;;;;13.11;90.44;96081.09;5034767;28;20197;-72
2023/05/01 09:43:13;;;;;;;4.82;2.50;;;;;;;12.97;94.33;96092.59;5035591;28;20209;-72
2023/05/01 09:45:42;;;;;;;8.55;3.10;;;;;;;12.97;91.48;96081.19;5034493;28;20228;-72
2023/05/01 09:48:10;;;;;;;3.72;2.25;;;;;;;12.91;95.81;96082.00;5035113;28;20212;-71
2023/05/01 09:50:38;;;;;;;3.03;2.08;;;;;;;13.06;90.47;96080.84;5034948;28;20221;-70
2023/05/01 09:53:05;;;;;;;5.78;3.00;;;;;;;13.09;92.06;96080.44;5034144;28;20216;-71
2023/05/01 09:55:32;;;;;;;5.95;3.47;;;;;;;12.99;93.03;96082.63;5034577;28;20601;-71
2023/05/01 09:57:59;;;;;;;4.43;2.53;;;;;;;13.11;93.18;96085.53;5035033;28;20197;-73
2023/05/01 10:00:26;;;;;;;2.30;1.97;;;;;;;12.74;92.74;96085.94;5034862;28;20239;-74
2023/05/01 10:02:54;;;;;;;5.67;3.10;;;;;;;13.01;92.72;96079.81;5035066;28;20221;-70
2023/05/01 10:05:21;;;;;;;6.40;3.05;;;;;;;13.38;93.14;96078.34;5033982;28;21144;-74
2023/05/01 10:07:57;;;;;;;5.70;2.23;;;;;;;13.53;89.20;96073.72;5034992;28;20263;-72
2023/05/01 10:10:23;;;;;;;3.75;2.10;;;;;;;13.39;91.54;96079.97;5034134;28;20276;-69
2023/05/01 10:12:50;;;;;;;6.40;2.40;;;;;;;13.54;91.21;96078.00;5035468;28;20209;-72
2023/05/01 10:15:17;;;;;;;6.00;2.50;;;;;;;13.40;88.92;96081.63;5035607;28;20232;-72
2023/05/01 10:17:44;;;;;;;6.22;3.42;;;;;;;13.14;93.07;96077.22;5034574;28;20206;-73
2023/05/01 10:20:13;;;;;;;4.40;2.72;;;;;;;13.82;92.46;96083.97;5035938;28;20284;-70
2023/05/01 10:22:40;;;;;;;2.50;2.08;;;;;;;14.04;91.36;96078.31;5035477;28;20224;-73
2023/05/01 10:25:10;;;;;;;4.13;2.90;;;;;;;13.86;86.88;96087.88;5034764;28;20225;-71
2023/05/01 10:27:38;;;;;;;3.65;2.55;;;;;;;13.94;89.95;96077.09;5034789;28;20662;-69
2023/05/01 10:30:06;;;;;;;4.32;2.65;;;;;;;14.04;88.06;96080.16;5035345;28;20225;-70
2023/05/01 10:32:33;;;;;;;7.00;4.00;;;;;;;14.47;87.06;96074.28;5035234;28;20207;-71
2023/05/01 10:35:04;;;;;;;4.38;2.33;;;;;;;14.71;84.95;96079.81;5034764;28;20228;-75
2023/05/01 10:37:38;;;;;;;5.47;2.55;;;;;;;14.37;83.03;96083.66;5034742;28;21067;-70
2023/05/01 10:40:41;;;;;;;4.65;2.58;;;;;;;14.62;81.51;96074.09;5034676;28;20220;-72
2023/05/01 10:43:17;;;;;;;3.85;2.53;;;;;;;14.60;84.09;96069.00;5036579;28;20209;-71
2023/05/01 10:45:44;;;;;;;5.40;2.80;;;;;;;14.60;82.29;96070.81;5038703;28;21325;-74
2023/05/01 10:48:11;;;;;;;3.50;2.13;;;;;;;14.67;81.39;96070.59;5038701;28;20721;-70
2023/05/01 10:51:08;;;;;;;4.30;2.47;;;;;;;15.08;84.38;96065.81;5038657;28;21071;-72
2023/05/01 10:53:36;;;;;;;5.85;3.17;;;;;;;15.11;83.33;96064.59;5038672;28;20209;-70
2023/05/01 10:56:04;;;;;;;4.13;2.63;;;;;;;15.36;79.87;96055.75;5038648;28;20752;-70
2023/05/01 10:58:58;;;;;;;3.53;2.15;;;;;;;15.43;80.74;96059.22;5040237;28;21516;-71
2023/05/01 11:01:29;;;;;;;4.03;2.40;;;;;;;15.73;78.01;96065.59;5038696;28;20201;-71
2023/05/01 11:03:56;;;;;;;6.05;3.70;;;;;;;15.51;77.27;96056.31;5038660;28;20680;-71
2023/05/01 11:06:24;;;;;;;3.92;2.38;;;;;;;15.27;80.13;96063.16;5039619;28;20228;-69
2023/05/01 11:08:52;;;;;;;6.18;2.60;;;;;;;15.20;79.69;96061.53;5037926;28;20229;-74
2023/05/01 11:11:51;;;;;;;3.60;2.45;;;;;;;15.65;80.90;96056.03;5039198;28;20674;-74
2023/05/01 11:14:18;;;;;;;5.15;3.33;;;;;;;15.35;76.43;96051.47;4976592;28;20218;-73
2023/05/01 11:16:47;;;;;;;5.93;2.67;;;;;;;15.69;78.79;96059.09;4977242;28;21147;-71
2023/05/01 11:19:49;;;;;;;3.80;2.58;;;;;;;15.86;76.75;96050.41;5004061;28;20213;-70
2023/05/01 11:22:17;;;;;;;6.00;3.05;;;;;;;16.01;78.86;96049.09;4961794;28;20243;-70
2023/05/01 11:24:46;;;;;;;7.95;3.28;;;;;;;16.36;79.14;96046.81;5024048;28;20803;-70
2023/05/01 11:27:14;;;;;;;5.45;3.50;;;;;;;16.58;75.28;96041.69;5038602;28;20622;-70
2023/05/01 11:29:45;;;;;;;6.45;3.40;;;;;;;16.75;74.81;96039.28;5038403;28;20225;-71
2023/05/01 11:32:16;;;;;;;5.32;2.90;;;;;;;16.73;74.40;96034.19;5038757;28;20669;-71
2023/05/01 11:34:43;;;;;;;7.32;3.30;;;;;;;16.54;77.99;96034.38;5038271;28;20232;-71
2023/05/01 11:37:09;;;;;;;4.05;2.95;;;;;;;16.57;79.40;96028.59;5038669;28;20224;-72